Time;durP1;ratioP1;P1;durP2;ratioP2;P2;SDS_P1;SDS_P2;PMS_P1;PMS_P2;Temp;Humidity;BMP_temperature;BMP_pressure;BME280_temperature;BME280_humidity;BME280_pressure;Samples;Min_cycle;Max_cycle;Signal;HPM_P1;HPM_P2
2023/03/15 00:00:17;;;;;;;;;12.75;7.50;;;;;;;;5063049;28;61964;-80
2023/03/15 00:02:42;;;;;;;;;8.25;7.00;;;;;;;;5064646;28;62033;-81
2023/03/15 00:05:11;;;;;;;;;10.00;10.00;;;;;;;;5063976;28;63255;-80
2023/03/15 00:07:37;;;;;;;;;9.00;7.00;;;;;;;;5063961;28;61732;-80
2023/03/15 00:10:03;;;;;;;;;10.50;7.50;;;;;;;;5063139;28;61779;-80
2023/03/15 00:12:28;;;;;;;;;12.75;8.50;;;;;;;;5062882;28;61910;-80
2023/03/15 00:14:53;;;;;;;;;8.50;8.25;;;;;;;;5063178;28;62062;-80
2023/03/15 00:17:21;;;;;;;;;9.25;7.00;;;;;;;;5064502;28;61810;-80
2023/03/15 00:19:47;;;;;;;;;10.75;7.25;;;;;;;;5062674;28;61929;-80
2023/03/15 00:22:12;;;;;;;;;9.25;9.00;;;;;;;;5064121;28;61754;-80
2023/03/15 00:24:37;;;;;;;;;8.50;8.00;;;;;;;;5063458;28;61729;-80
2023/03/15 00:27:04;;;;;;;;;7.00;6.00;;;;;;;;5062388;28;62117;-80
2023/03/15 00:29:29;;;;;;;;;17.25;11.25;;;;;;;;5063917;28;61893;-80
2023/03/15 00:31:54;;;;;;;;;7.50;7.25;;;;;;;;5062607;28;62239;-80
2023/03/15 00:34:23;;;;;;;;;11.25;7.50;;;;;;;;5061700;28;63787;-80
2023/03/15 00:36:48;;;;;;;;;10.50;7.25;;;;;;;;5062279;28;61805;-80
2023/03/15 00:39:14;;;;;;;;;13.00;7.50;;;;;;;;5062891;28;62274;-80
2023/03/15 00:41:39;;;;;;;;;9.50;9.50;;;;;;;;5062540;28;62069;-80
2023/03/15 00:44:05;;;;;;;;;5.75;5.00;;;;;;;;5062814;28;62839;-80
2023/03/15 00:46:30;;;;;;;;;6.50;5.75;;;;;;;;5062538;28;62021;-80
2023/03/15 00:48:55;;;;;;;;;7.25;7.25;;;;;;;;5063517;28;61980;-80
2023/03/15 00:51:22;;;;;;;;;6.00;5.25;;;;;;;;5063900;28;61914;-80
2023/03/15 00:53:48;;;;;;;;;8.00;2.75;;;;;;;;5062482;28;61976;-80
2023/03/15 00:56:18;;;;;;;;;7.75;6.50;;;;;;;;5062403;28;61963;-80
2023/03/15 00:58:43;;;;;;;;;10.50;7.00;;;;;;;;5063170;28;61822;-80
2023/03/15 01:01:11;;;;;;;;;6.50;6.00;;;;;;;;5062491;28;62151;-80
2023/03/15 01:03:36;;;;;;;;;5.25;5.00;;;;;;;;5061378;28;64035;-80
2023/03/15 01:06:09;;;;;;;;;7.00;7.00;;;;;;;;5063449;28;61782;-80
2023/03/15 01:08:34;;;;;;;;;5.50;5.50;;;;;;;;5062258;28;62033;-80
2023/03/15 01:11:04;;;;;;;;;2.75;2.75;;;;;;;;5063366;28;61746;-80
2023/03/15 01:13:29;;;;;;;;;6.75;4.00;;;;;;;;5061116;28;64065;-80
2023/03/15 01:15:54;;;;;;;;;6.50;5.50;;;;;;;;5063362;28;61973;-80
2023/03/15 01:18:20;;;;;;;;;6.50;6.50;;;;;;;;5061828;28;62196;-80
2023/03/15 01:20:45;;;;;;;;;7.00;6.00;;;;;;;;5063378;28;61747;-80
2023/03/15 01:23:10;;;;;;;;;5.00;3.00;;;;;;;;5060997;28;63651;-80
2023/03/15 01:25:35;;;;;;;;;10.00;5.00;;;;;;;;5061286;28;61967;-80
2023/03/15 01:28:01;;;;;;;;;4.00;4.00;;;;;;;;5062504;28;61687;-80
2023/03/15 01:30:26;;;;;;;;;6.50;5.00;;;;;;;;5063065;28;61875;-80
2023/03/15 01:32:51;;;;;;;;;5.00;4.50;;;;;;;;5063682;28;63487;-80
2023/03/15 01:35:16;;;;;;;;;6.50;3.00;;;;;;;;5083270;27;61888;-80
2023/03/15 01:37:42;;;;;;;;;9.25;7.50;;;;;;;;5065171;28;61815;-80
2023/03/15 01:40:10;;;;;;;;;7.75;5.00;;;;;;;;5083258;27;61803;-80
2023/03/15 01:42:49;;;;;;;;;3.00;3.00;;;;;;;;5063987;28;63572;-80
2023/03/15 01:45:33;;;;;;;;;2.00;2.00;;;;;;;;5082955;28;62055;-80
2023/03/15 01:47:59;;;;;;;;;6.25;3.00;;;;;;;;5081593;27;61805;-80
2023/03/15 01:50:24;;;;;;;;;5.00;2.25;;;;;;;;5083293;27;61755;-80
2023/03/15 01:52:50;;;;;;;;;4.50;4.50;;;;;;;;5082158;27;62037;-80
2023/03/15 01:55:18;;;;;;;;;3.50;3.50;;;;;;;;5064629;28;61961;-80
2023/03/15 01:57:43;;;;;;;;;5.75;3.00;;;;;;;;5064585;28;61819;-80
2023/03/15 02:00:10;;;;;;;;;5.50;3.50;;;;;;;;5064491;28;61998;-80
2023/03/15 02:02:38;;;;;;;;;1.75;1.25;;;;;;;;5082173;28;62136;-80
2023/03/15 02:05:10;;;;;;;;;7.00;5.00;;;;;;;;5064501;28;61804;-80
2023/03/15 02:07:37;;;;;;;;;5.00;1.25;;;;;;;;5064580;28;62093;-80
2023/03/15 02:10:09;;;;;;;;;3.00;3.00;;;;;;;;5064535;28;62145;-80
2023/03/15 02:12:41;;;;;;;;;3.00;3.00;;;;;;;;5063681;28;63509;-80
2023/03/15 02:15:06;;;;;;;;;9.00;3.00;;;;;;;;5082491;28;61890;-80
2023/03/15 02:17:36;;;;;;;;;3.75;3.75;;;;;;;;5064322;28;61957;-80
2023/03/15 02:20:04;;;;;;;;;6.25;5.00;;;;;;;;5064556;28;62706;-80
2023/03/15 02:22:36;;;;;;;;;7.00;3.00;;;;;;;;5063687;28;64958;-80
2023/03/15 02:25:12;;;;;;;;;2.25;2.00;;;;;;;;5082458;27;61955;-80
2023/03/15 02:27:38;;;;;;;;;6.50;3.00;;;;;;;;5082279;28;62048;-80
2023/03/15 02:30:04;;;;;;;;;2.00;2.00;;;;;;;;5064242;28;61849;-80
2023/03/15 02:32:29;;;;;;;;;5.00;3.00;;;;;;;;5063119;28;63812;-80
2023/03/15 02:34:55;;;;;;;;;3.00;3.00;;;;;;;;5082416;27;61933;-80
2023/03/15 02:37:20;;;;;;;;;6.25;6.00;;;;;;;;5064932;28;61883;-80
2023/03/15 02:39:45;;;;;;;;;7.00;3.00;;;;;;;;5086349;27;61874;-80
2023/03/15 02:42:11;;;;;;;;;11.00;4.75;;;;;;;;5084992;27;63055;-80
2023/03/15 02:44:37;;;;;;;;;4.00;3.50;;;;;;;;5085744;28;61974;-80
2023/03/15 02:47:08;;;;;;;;;2.00;2.00;;;;;;;;5085741;27;61913;-80
2023/03/15 02:49:41;;;;;;;;;7.00;4.75;;;;;;;;5085850;28;61797;-80
2023/03/15 02:52:06;;;;;;;;;9.00;4.50;;;;;;;;5066833;28;63791;-80
2023/03/15 02:54:33;;;;;;;;;2.75;2.75;;;;;;;;5066921;28;61797;-80
2023/03/15 02:56:58;;;;;;;;;2.50;2.50;;;;;;;;5085678;27;61738;-80
2023/03/15 02:59:24;;;;;;;;;5.00;3.00;;;;;;;;5085698;27;62171;-80
2023/03/15 03:01:50;;;;;;;;;6.00;5.00;;;;;;;;5066678;28;64908;-80
2023/03/15 03:04:15;;;;;;;;;2.00;1.00;;;;;;;;5085443;27;62039;-80
2023/03/15 03:06:42;;;;;;;;;4.50;2.75;;;;;;;;5067503;28;61915;-80
2023/03/15 03:09:08;;;;;;;;;5.00;2.00;;;;;;;;5067616;28;61775;-80
2023/03/15 03:11:33;;;;;;;;;5.25;3.00;;;;;;;;5066194;27;64795;-80
2023/03/15 03:13:58;;;;;;;;;2.00;2.00;;;;;;;;5084898;27;61870;-80
2023/03/15 03:16:23;;;;;;;;;5.25;2.25;;;;;;;;5085622;27;61681;-80
2023/03/15 03:18:50;;;;;;;;;7.25;5.00;;;;;;;;5067507;28;62157;-80
2023/03/15 03:21:15;;;;;;;;;5.00;3.00;;;;;;;;5066747;28;64086;-80
2023/03/15 03:23:40;;;;;;;;;5.00;3.00;;;;;;;;5066563;27;62015;-80
2023/03/15 03:26:15;;;;;;;;;10.00;3.50;;;;;;;;5067223;28;61976;-80
2023/03/15 03:28:41;;;;;;;;;5.00;5.00;;;;;;;;5066453;28;61759;-80
2023/03/15 03:31:14;;;;;;;;;3.00;3.00;;;;;;;;5084892;28;61890;-80
2023/03/15 03:33:39;;;;;;;;;4.50;4.50;;;;;;;;5066459;28;62211;-80
2023/03/15 03:36:04;;;;;;;;;4.00;3.00;;;;;;;;5066991;28;61833;-80
2023/03/15 03:38:30;;;;;;;;;6.00;5.00;;;;;;;;5085285;27;61880;-80
2023/03/15 03:40:55;;;;;;;;;6.25;3.00;;;;;;;;5084595;27;61875;-80
2023/03/15 03:43:20;;;;;;;;;4.00;2.50;;;;;;;;5084515;28;61804;-80
2023/03/15 03:45:45;;;;;;;;;5.50;3.00;;;;;;;;5066962;28;61931;-80
2023/03/15 03:48:12;;;;;;;;;7.00;2.50;;;;;;;;5066982;28;62351;-80
2023/03/15 03:50:37;;;;;;;;;2.75;2.75;;;;;;;;5065049;28;65152;-80
2023/03/15 03:53:02;;;;;;;;;3.75;2.25;;;;;;;;5084823;28;61771;-80
2023/03/15 03:55:28;;;;;;;;;5.00;3.00;;;;;;;;5066482;28;62057;-80
2023/03/15 03:57:53;;;;;;;;;8.25;5.25;;;;;;;;5066288;28;61962;-79
2023/03/15 04:00:18;;;;;;;;;2.00;2.00;;;;;;;;5084197;27;61962;-80
2023/03/15 04:02:44;;;;;;;;;2.75;2.25;;;;;;;;5084524;27;61879;-79
2023/03/15 04:05:10;;;;;;;;;6.25;4.00;;;;;;;;5084940;28;61794;-80
2023/03/15 04:07:35;;;;;;;;;5.00;2.00;;;;;;;;5084862;27;61673;-79
2023/03/15 04:10:01;;;;;;;;;7.00;2.00;;;;;;;;5084149;27;63156;-79
2023/03/15 04:12:26;;;;;;;;;7.00;3.00;;;;;;;;5084108;27;61845;-80
2023/03/15 04:14:52;;;;;;;;;3.50;3.00;;;;;;;;5066299;27;61918;-79
2023/03/15 04:17:17;;;;;;;;;3.50;2.00;;;;;;;;5066587;27;62009;-80
2023/03/15 04:19:45;;;;;;;;;4.50;4.50;;;;;;;;5065504;27;63980;-79
2023/03/15 04:22:14;;;;;;;;;8.50;3.50;;;;;;;;5084427;28;61713;-80
2023/03/15 04:24:39;;;;;;;;;2.75;2.00;;;;;;;;5084131;28;61855;-80
2023/03/15 04:27:05;;;;;;;;;4.50;4.50;;;;;;;;5066019;28;61990;-80
2023/03/15 04:29:30;;;;;;;;;4.50;4.50;;;;;;;;5065025;28;64439;-80
2023/03/15 04:32:00;;;;;;;;;2.00;2.00;;;;;;;;5065845;28;61740;-80
2023/03/15 04:34:27;;;;;;;;;2.00;2.00;;;;;;;;5083959;27;61775;-79
2023/03/15 04:36:53;;;;;;;;;1.75;1.75;;;;;;;;5065895;27;61817;-80
2023/03/15 04:39:19;;;;;;;;;3.00;1.00;;;;;;;;5065197;28;63820;-79
2023/03/15 04:41:44;;;;;;;;;8.25;3.00;;;;;;;;5083866;28;62049;-80
2023/03/15 04:44:09;;;;;;;;;3.50;2.00;;;;;;;;5065179;27;62235;-79
2023/03/15 04:46:35;;;;;;;;;6.75;5.50;;;;;;;;5066327;28;61843;-79
2023/03/15 04:49:02;;;;;;;;;9.00;4.50;;;;;;;;5083376;27;61985;-79
2023/03/15 04:51:27;;;;;;;;;6.25;2.00;;;;;;;;5084082;28;61795;-80
2023/03/15 04:53:53;;;;;;;;;2.00;2.00;;;;;;;;5083165;28;61656;-80
2023/03/15 04:56:18;;;;;;;;;5.25;3.00;;;;;;;;5084091;28;62108;-80
2023/03/15 04:58:43;;;;;;;;;3.50;2.00;;;;;;;;5082933;28;62154;-79
2023/03/15 05:01:09;;;;;;;;;6.25;5.00;;;;;;;;5083858;27;61955;-80
2023/03/15 05:03:34;;;;;;;;;2.00;2.00;;;;;;;;5065339;28;62145;-80
2023/03/15 05:06:06;;;;;;;;;3.00;2.00;;;;;;;;5083884;27;61962;-80
2023/03/15 05:08:32;;;;;;;;;10.00;5.00;;;;;;;;5064860;28;64079;-80
2023/03/15 05:10:57;;;;;;;;;5.75;3.50;;;;;;;;5083149;28;61834;-80
2023/03/15 05:13:22;;;;;;;;;4.00;2.25;;;;;;;;5083603;28;61831;-79
2023/03/15 05:15:47;;;;;;;;;3.50;2.00;;;;;;;;5065288;28;61814;-80
2023/03/15 05:18:13;;;;;;;;;5.00;1.75;;;;;;;;5082989;28;62704;-80
2023/03/15 05:20:38;;;;;;;;;5.50;3.00;;;;;;;;5065122;27;61915;-79
2023/03/15 05:23:03;;;;;;;;;4.50;2.75;;;;;;;;5083245;28;61804;-79
2023/03/15 05:25:29;;;;;;;;;3.00;2.00;;;;;;;;5065002;28;61897;-80
2023/03/15 05:27:54;;;;;;;;;3.00;1.25;;;;;;;;5082369;28;62069;-80
2023/03/15 05:30:20;;;;;;;;;2.50;2.00;;;;;;;;5083144;27;61818;-79
2023/03/15 05:32:45;;;;;;;;;3.50;3.25;;;;;;;;5064912;28;61957;-79
2023/03/15 05:35:11;;;;;;;;;2.00;2.00;;;;;;;;5083147;28;62158;-79
2023/03/15 05:37:37;;;;;;;;;4.75;2.25;;;;;;;;5082871;28;62123;-79
2023/03/15 05:40:06;;;;;;;;;2.25;2.25;;;;;;;;5064515;28;62242;-80
2023/03/15 05:42:32;;;;;;;;;4.75;2.00;;;;;;;;5064576;28;61779;-80
2023/03/15 05:44:58;;;;;;;;;3.00;2.00;;;;;;;;5083024;27;61942;-79
2023/03/15 05:47:23;;;;;;;;;4.75;2.50;;;;;;;;5082590;27;62921;-79
2023/03/15 05:49:48;;;;;;;;;1.75;1.25;;;;;;;;5083316;27;62191;-79
2023/03/15 05:52:14;;;;;;;;;2.00;1.75;;;;;;;;5082962;28;61909;-79
2023/03/15 05:54:39;;;;;;;;;2.75;1.25;;;;;;;;5064211;28;61787;-79
2023/03/15 05:57:05;;;;;;;;;1.00;1.00;;;;;;;;5082458;28;62085;-79
2023/03/15 05:59:31;;;;;;;;;2.00;2.00;;;;;;;;5064347;28;61753;-80
2023/03/15 06:01:56;;;;;;;;;5.50;3.75;;;;;;;;5082997;28;61870;-79
2023/03/15 06:04:22;;;;;;;;;5.75;3.25;;;;;;;;5082828;28;61887;-79
2023/03/15 06:06:48;;;;;;;;;3.50;2.00;;;;;;;;5063900;28;63953;-80
2023/03/15 06:09:13;;;;;;;;;4.25;2.75;;;;;;;;5064009;28;61824;-79
2023/03/15 06:11:38;;;;;;;;;7.25;3.50;;;;;;;;5064320;28;61961;-79
2023/03/15 06:14:04;;;;;;;;;5.00;5.00;;;;;;;;5063866;27;62047;-79
2023/03/15 06:16:29;;;;;;;;;6.25;5.25;;;;;;;;5084250;28;62004;-81
2023/03/15 06:18:54;;;;;;;;;5.25;5.00;;;;;;;;5064515;28;61872;-79
2023/03/15 06:21:19;;;;;;;;;7.00;5.00;;;;;;;;5064357;28;61989;-79
2023/03/15 06:23:45;;;;;;;;;6.00;2.25;;;;;;;;5063915;27;61814;-79
2023/03/15 06:26:10;;;;;;;;;5.00;3.00;;;;;;;;5064820;28;63667;-79
2023/03/15 06:28:39;;;;;;;;;6.75;4.00;;;;;;;;5063543;28;62052;-79
2023/03/15 06:31:10;;;;;;;;;6.25;5.00;;;;;;;;5063919;28;61762;-79
2023/03/15 06:33:35;;;;;;;;;4.25;3.00;;;;;;;;5082155;28;62084;-79
2023/03/15 06:36:01;;;;;;;;;6.50;4.00;;;;;;;;5081769;28;62526;-80
2023/03/15 06:38:26;;;;;;;;;5.25;5.25;;;;;;;;5080816;28;61985;-77
2023/03/15 06:40:51;;;;;;;;;8.75;4.75;;;;;;;;5076527;28;61894;-76
2023/03/15 06:43:18;;;;;;;;;6.50;2.75;;;;;;;;5059294;28;62075;-78
2023/03/15 06:45:44;;;;;;;;;9.25;6.75;;;;;;;;5072375;27;62649;-77
2023/03/15 06:48:09;;;;;;;;;5.75;5.50;;;;;;;;5063530;28;62040;-78
2023/03/15 06:50:35;;;;;;;;;7.00;7.00;;;;;;;;5062752;28;62052;-78
2023/03/15 06:53:01;;;;;;;;;5.25;5.25;;;;;;;;5057283;28;62496;-79
2023/03/15 06:55:26;;;;;;;;;7.00;6.25;;;;;;;;5063065;28;63983;-80
2023/03/15 06:57:52;;;;;;;;;8.50;6.00;;;;;;;;5078350;28;62316;-78
2023/03/15 07:00:17;;;;;;;;;6.75;3.50;;;;;;;;5062102;28;61981;-79
2023/03/15 07:02:42;;;;;;;;;3.50;3.00;;;;;;;;5061868;28;62156;-77
2023/03/15 07:05:08;;;;;;;;;6.25;3.50;;;;;;;;5063399;28;62078;-78
2023/03/15 07:07:33;;;;;;;;;4.00;2.00;;;;;;;;5064042;28;61926;-78
2023/03/15 07:09:58;;;;;;;;;2.25;2.25;;;;;;;;5045744;28;62014;-76
2023/03/15 07:12:24;;;;;;;;;5.25;1.75;;;;;;;;5071560;28;61857;-76
2023/03/15 07:14:49;;;;;;;;;5.00;3.00;;;;;;;;5050333;27;63916;-76
2023/03/15 07:17:14;;;;;;;;;5.00;5.00;;;;;;;;5075017;28;61920;-76
2023/03/15 07:19:40;;;;;;;;;2.00;2.00;;;;;;;;5059629;28;61988;-76
2023/03/15 07:22:05;;;;;;;;;6.25;2.00;;;;;;;;5060570;28;61804;-76
2023/03/15 07:24:30;;;;;;;;;2.50;2.25;;;;;;;;5059842;28;63439;-76
2023/03/15 07:26:56;;;;;;;;;3.00;1.50;;;;;;;;5076415;28;61759;-76
2023/03/15 07:29:22;;;;;;;;;3.50;2.75;;;;;;;;5067881;28;61832;-77
2023/03/15 07:31:48;;;;;;;;;5.50;3.00;;;;;;;;5065687;27;61999;-78
2023/03/15 07:34:13;;;;;;;;;8.25;4.25;;;;;;;;5055620;28;63383;-77
2023/03/15 07:36:39;;;;;;;;;6.00;4.00;;;;;;;;5080219;28;61847;-77
2023/03/15 07:39:05;;;;;;;;;6.50;4.50;;;;;;;;5064815;28;61783;-77
2023/03/15 07:41:30;;;;;;;;;5.00;3.00;;;;;;;;5060995;28;61763;-77
2023/03/15 07:43:56;;;;;;;;;7.00;3.00;;;;;;;;5063357;28;61812;-79
2023/03/15 07:46:21;;;;;;;;;5.00;3.00;;;;;;;;5063497;28;62317;-79
2023/03/15 07:48:46;;;;;;;;;3.00;3.00;;;;;;;;5046338;28;61942;-78
2023/03/15 07:51:12;;;;;;;;;4.75;3.50;;;;;;;;5046055;28;61939;-78
2023/03/15 07:53:37;;;;;;;;;7.00;3.50;;;;;;;;5060763;28;63712;-78
2023/03/15 07:56:03;;;;;;;;;3.00;3.00;;;;;;;;5066047;27;61838;-78
2023/03/15 07:58:28;;;;;;;;;3.00;3.00;;;;;;;;5083612;27;61967;-79
2023/03/15 08:00:55;;;;;;;;;9.00;6.00;;;;;;;;5084303;28;61985;-78
2023/03/15 08:03:20;;;;;;;;;7.50;4.00;;;;;;;;5065272;28;63775;-79
2023/03/15 08:05:45;;;;;;;;;6.25;2.00;;;;;;;;5077697;28;62175;-78
2023/03/15 08:08:11;;;;;;;;;5.00;2.75;;;;;;;;5060327;28;62061;-78
2023/03/15 08:10:36;;;;;;;;;2.25;2.25;;;;;;;;5072969;28;61871;-78
2023/03/15 08:13:01;;;;;;;;;7.00;2.75;;;;;;;;5068638;27;61794;-77
2023/03/15 08:15:26;;;;;;;;;8.00;3.25;;;;;;;;5086065;27;62108;-78
2023/03/15 08:17:52;;;;;;;;;3.50;2.25;;;;;;;;5086562;27;61934;-78
2023/03/15 08:20:17;;;;;;;;;3.50;2.00;;;;;;;;5104542;27;62095;-78
2023/03/15 08:22:43;;;;;;;;;3.75;1.00;;;;;;;;5085428;27;64809;-78
2023/03/15 08:25:10;;;;;;;;;3.00;3.00;;;;;;;;5086123;27;61984;-77
2023/03/15 08:27:35;;;;;;;;;4.00;3.00;;;;;;;;5103995;27;61862;-77
2023/03/15 08:30:01;;;;;;;;;3.50;2.00;;;;;;;;5085840;27;62159;-78
2023/03/15 08:32:26;;;;;;;;;8.25;2.75;;;;;;;;5103837;27;62034;-78
2023/03/15 08:34:51;;;;;;;;;2.25;0.75;;;;;;;;5062346;27;61787;-78
2023/03/15 08:37:18;;;;;;;;;9.50;6.00;;;;;;;;5078674;27;61818;-78
2023/03/15 08:39:44;;;;;;;;;9.00;4.00;;;;;;;;5062083;28;62051;-77
2023/03/15 08:42:09;;;;;;;;;10.25;6.25;;;;;;;;5062585;28;61960;-78
2023/03/15 08:44:34;;;;;;;;;10.50;7.25;;;;;;;;5062764;28;61791;-80
2023/03/15 08:47:00;;;;;;;;;6.00;4.00;;;;;;;;5063298;28;62084;-79
2023/03/15 08:49:25;;;;;;;;;2.00;2.00;;;;;;;;5063522;28;61986;-80
2023/03/15 08:51:51;;;;;;;;;4.00;2.75;;;;;;;;5063692;28;62956;-80
2023/03/15 08:54:16;;;;;;;;;7.50;2.75;;;;;;;;5064798;28;62039;-80
2023/03/15 08:56:42;;;;;;;;;2.00;2.00;;;;;;;;5065323;28;62022;-80
2023/03/15 08:59:08;;;;;;;;;3.75;2.50;;;;;;;;5083247;28;61973;-80
2023/03/15 09:01:33;;;;;;;;;2.50;2.25;;;;;;;;5064684;27;65061;-80
2023/03/15 09:04:00;;;;;;;;;3.00;3.00;;;;;;;;5083031;27;61893;-80
2023/03/15 09:06:25;;;;;;;;;2.00;2.00;;;;;;;;5065165;28;61745;-80
2023/03/15 09:08:52;;;;;;;;;1.75;1.00;;;;;;;;5083323;27;61687;-79
2023/03/15 09:11:18;;;;;;;;;3.00;1.75;;;;;;;;5082934;27;61832;-79
2023/03/15 09:13:43;;;;;;;;;4.00;1.25;;;;;;;;5064573;28;61814;-76
2023/03/15 09:16:08;;;;;;;;;2.75;1.75;;;;;;;;5074413;27;61913;-78
2023/03/15 09:18:33;;;;;;;;;5.00;2.00;;;;;;;;5083401;27;61731;-79
2023/03/15 09:20:59;;;;;;;;;1.00;1.00;;;;;;;;5082638;27;61990;-78
2023/03/15 09:23:24;;;;;;;;;2.75;1.00;;;;;;;;5064820;28;61848;-78
2023/03/15 09:25:50;;;;;;;;;2.25;2.25;;;;;;;;5083061;28;61880;-79
2023/03/15 09:28:15;;;;;;;;;4.00;2.00;;;;;;;;5064550;28;61818;-78
2023/03/15 09:30:41;;;;;;;;;9.25;2.00;;;;;;;;5082348;27;61783;-78
2023/03/15 09:33:07;;;;;;;;;7.00;3.75;;;;;;;;5082759;28;62026;-78
2023/03/15 09:35:32;;;;;;;;;3.00;2.00;;;;;;;;5064779;28;62460;-78
2023/03/15 09:37:59;;;;;;;;;4.25;3.50;;;;;;;;5064876;27;62259;-78
2023/03/15 09:40:29;;;;;;;;;6.50;2.00;;;;;;;;5082305;28;61743;-78
2023/03/15 09:43:10;;;;;;;;;4.25;1.50;;;;;;;;5073227;28;61743;-78
2023/03/15 09:45:39;;;;;;;;;3.00;1.75;;;;;;;;5064289;27;61869;-79
2023/03/15 09:48:04;;;;;;;;;3.75;1.25;;;;;;;;5063670;28;61787;-79
2023/03/15 09:50:50;;;;;;;;;4.33;1.33;;;;;;;;5063822;28;64681;-78
2023/03/15 09:53:19;;;;;;;;;1.00;1.00;;;;;;;;5082489;27;61761;-79
2023/03/15 09:55:45;;;;;;;;;3.00;1.00;;;;;;;;5064491;28;61697;-78
2023/03/15 09:58:40;;;;;;;;;4.25;1.00;;;;;;;;5064430;28;62077;-78
2023/03/15 10:01:06;;;;;;;;;2.50;1.00;;;;;;;;5046210;28;64229;-79
2023/03/15 10:03:35;;;;;;;;;3.25;2.00;;;;;;;;5082520;27;61790;-79
2023/03/15 10:06:04;;;;;;;;;1.75;1.50;;;;;;;;5057677;27;61906;-80
2023/03/15 10:08:29;;;;;;;;;2.25;1.00;;;;;;;;5065279;28;61762;-80
2023/03/15 10:11:04;;;;;;;;;1.00;1.00;;;;;;;;5081533;28;63187;-78
2023/03/15 10:13:29;;;;;;;;;6.00;1.75;;;;;;;;5068578;27;61913;-79
2023/03/15 10:16:07;;;;;;;;;1.25;1.25;;;;;;;;5102532;27;61817;-78
2023/03/15 10:18:35;;;;;;;;;3.00;1.25;;;;;;;;5103296;27;61664;-77
2023/03/15 10:21:04;;;;;;;;;1.00;1.00;;;;;;;;5073154;27;61933;-78
2023/03/15 10:23:29;;;;;;;;;4.00;2.00;;;;;;;;5043567;28;61973;-77
2023/03/15 10:25:55;;;;;;;;;1.00;1.00;;;;;;;;5043777;28;61896;-78
2023/03/15 10:28:27;;;;;;;;;2.00;2.00;;;;;;;;5062067;28;62036;-79
2023/03/15 10:30:53;;;;;;;;;4.25;1.00;;;;;;;;5042873;28;64185;-77
2023/03/15 10:33:32;;;;;;;;;2.25;2.25;;;;;;;;5061684;28;61929;-78
2023/03/15 10:35:58;;;;;;;;;1.00;1.00;;;;;;;;5043635;28;61909;-77
2023/03/15 10:38:24;;;;;;;;;4.50;2.00;;;;;;;;5043698;28;61766;-79
2023/03/15 10:40:56;;;;;;;;;3.00;1.00;;;;;;;;5074318;28;62752;-79
2023/03/15 10:43:23;;;;;;;;;4.50;2.00;;;;;;;;5065588;28;62024;-77
2023/03/15 10:45:59;;;;;;;;;3.25;1.50;;;;;;;;5066873;28;62039;-77
2023/03/15 10:48:30;;;;;;;;;3.50;3.00;;;;;;;;5067184;28;61804;-78
2023/03/15 10:50:56;;;;;;;;;1.25;1.00;;;;;;;;5053250;28;63428;-77
2023/03/15 10:53:24;;;;;;;;;2.00;0.50;;;;;;;;5065321;28;61882;-77
2023/03/15 10:55:56;;;;;;;;;1.00;1.00;;;;;;;;5054122;28;61868;-77
2023/03/15 10:58:40;;;;;;;;;4.25;2.50;;;;;;;;5071598;28;61795;-77
2023/03/15 11:01:08;;;;;;;;;2.00;0.00;;;;;;;;5056729;28;63691;-80
2023/03/15 11:03:34;;;;;;;;;2.00;0.00;;;;;;;;5055870;28;62024;-79
2023/03/15 11:05:59;;;;;;;;;1.75;1.75;;;;;;;;5064340;28;62009;-78
2023/03/15 11:08:36;;;;;;;;;0.00;0.00;;;;;;;;5066467;28;61783;-78
2023/03/15 11:11:05;;;;;;;;;5.00;0.00;;;;;;;;5064996;28;64493;-78
2023/03/15 11:13:32;;;;;;;;;3.00;1.25;;;;;;;;5083369;27;62036;-79
2023/03/15 11:16:03;;;;;;;;;2.75;1.00;;;;;;;;5064514;28;61937;-78
2023/03/15 11:18:31;;;;;;;;;1.50;1.50;;;;;;;;5059560;28;61932;-77
2023/03/15 11:20:57;;;;;;;;;3.00;2.00;;;;;;;;5063919;28;64585;-77
2023/03/15 11:23:25;;;;;;;;;0.50;0.50;;;;;;;;5062240;28;61848;-78
2023/03/15 11:25:51;;;;;;;;;2.50;1.00;;;;;;;;5083316;27;61920;-78
2023/03/15 11:28:18;;;;;;;;;1.00;1.00;;;;;;;;5064390;28;61903;-80
2023/03/15 11:30:44;;;;;;;;;1.00;1.00;;;;;;;;5063526;28;62037;-81
2023/03/15 11:33:13;;;;;;;;;4.00;1.00;;;;;;;;5047846;28;61828;-82
2023/03/15 11:35:46;;;;;;;;;1.50;1.00;;;;;;;;5048727;28;61861;-81
2023/03/15 11:38:32;;;;;;;;;1.00;1.00;;;;;;;;5070387;28;61906;-80
2023/03/15 11:40:57;;;;;;;;;1.00;1.00;;;;;;;;5080861;27;61975;-80
2023/03/15 11:43:42;;;;;;;;;0.00;0.00;;;;;;;;5071859;27;61396;-81
2023/03/15 11:46:18;;;;;;;;;0.00;0.00;;;;;;;;5063959;27;61872;-81
2023/03/15 11:48:47;;;;;;;;;2.00;0.50;;;;;;;;5068191;28;61468;-80
2023/03/15 11:51:13;;;;;;;;;0.00;0.00;;;;;;;;5068424;28;63726;-81
2023/03/15 11:53:42;;;;;;;;;0.50;0.50;;;;;;;;5085495;28;61811;-80
2023/03/15 11:56:24;;;;;;;;;0.50;0.00;;;;;;;;5080156;27;61771;-81
2023/03/15 11:59:03;;;;;;;;;0.00;0.00;;;;;;;;5061064;28;62048;-80
2023/03/15 12:01:28;;;;;;;;;1.00;0.00;;;;;;;;5061890;27;64269;-79
2023/03/15 12:04:12;;;;;;;;;1.00;0.00;;;;;;;;5056367;28;61935;-80
2023/03/15 12:06:38;;;;;;;;;0.00;0.00;;;;;;;;5063197;28;62404;-80
2023/03/15 12:09:23;;;;;;;;;1.00;0.00;;;;;;;;5082048;28;61895;-79
2023/03/15 12:11:49;;;;;;;;;1.00;1.00;;;;;;;;5063150;28;65114;-80
2023/03/15 12:14:26;;;;;;;;;1.00;1.00;;;;;;;;5056451;28;62013;-81
2023/03/15 12:16:56;;;;;;;;;1.00;1.00;;;;;;;;5074482;28;61945;-79
2023/03/15 12:19:23;;;;;;;;;2.50;1.75;;;;;;;;5074331;27;62009;-82
2023/03/15 12:21:50;;;;;;;;;0.25;0.25;;;;;;;;5062618;28;63796;-77
2023/03/15 12:24:24;;;;;;;;;0.50;0.50;;;;;;;;5063937;27;62174;-79
2023/03/15 12:26:59;;;;;;;;;0.00;0.00;;;;;;;;5063908;28;62075;-79
2023/03/15 12:29:26;;;;;;;;;0.00;0.00;;;;;;;;5083573;27;61981;-80
2023/03/15 12:32:00;;;;;;;;;0.00;0.00;;;;;;;;5064759;28;64017;-80
2023/03/15 12:34:43;;;;;;;;;0.00;0.00;;;;;;;;5083001;27;61791;-80
2023/03/15 12:37:17;;;;;;;;;0.75;0.75;;;;;;;;5071580;28;61832;-76
2023/03/15 12:39:42;;;;;;;;;1.00;0.50;;;;;;;;5055710;28;61854;-76
2023/03/15 12:42:26;;;;;;;;;1.50;0.00;;;;;;;;5056130;28;63749;-78
2023/03/15 12:44:51;;;;;;;;;2.00;0.00;;;;;;;;5063987;28;61714;-79
2023/03/15 12:47:17;;;;;;;;;0.25;0.25;;;;;;;;5065599;28;61949;-79
2023/03/15 12:49:43;;;;;;;;;2.50;0.00;;;;;;;;5065165;28;61937;-80
2023/03/15 12:52:14;;;;;;;;;0.25;0.25;;;;;;;;5064827;28;64752;-81
2023/03/15 12:54:53;;;;;;;;;0.00;0.00;;;;;;;;5064641;28;61924;-81
2023/03/15 12:57:29;;;;;;;;;0.25;0.25;;;;;;;;5065349;28;61947;-81
2023/03/15 13:00:14;;;;;;;;;0.00;0.00;;;;;;;;5067866;28;62167;-80
2023/03/15 13:02:45;;;;;;;;;3.00;1.00;;;;;;;;5088671;28;62456;-79
2023/03/15 13:05:29;;;;;;;;;1.25;0.00;;;;;;;;5080134;27;61771;-79
2023/03/15 13:07:55;;;;;;;;;2.00;0.50;;;;;;;;5082517;27;61448;-79
2023/03/15 13:10:32;;;;;;;;;0.00;0.00;;;;;;;;5059226;28;61743;-79
2023/03/15 13:13:18;;;;;;;;;1.50;0.25;;;;;;;;5073436;27;62096;-80
2023/03/15 13:15:52;;;;;;;;;0.75;0.00;;;;;;;;5070645;27;62017;-80
2023/03/15 13:18:20;;;;;;;;;0.75;0.75;;;;;;;;5064329;27;61815;-79
2023/03/15 13:21:05;;;;;;;;;0.00;0.00;;;;;;;;5061540;28;61976;-79
2023/03/15 13:23:33;;;;;;;;;0.50;0.00;;;;;;;;5080805;27;62954;-79
2023/03/15 13:25:58;;;;;;;;;0.25;0.25;;;;;;;;5081548;28;61739;-79
2023/03/15 13:28:26;;;;;;;;;1.00;1.00;;;;;;;;5082684;27;61672;-77
2023/03/15 13:30:52;;;;;;;;;0.75;0.25;;;;;;;;5082779;27;61701;-78
2023/03/15 13:33:22;;;;;;;;;1.00;0.00;;;;;;;;5082493;27;62464;-79
2023/03/15 13:35:47;;;;;;;;;2.00;1.00;;;;;;;;5081342;28;61874;-79
2023/03/15 13:38:19;;;;;;;;;0.00;0.00;;;;;;;;5081147;28;61998;-79
2023/03/15 13:40:45;;;;;;;;;0.50;0.25;;;;;;;;5057453;28;61936;-80
2023/03/15 13:43:10;;;;;;;;;0.00;0.00;;;;;;;;5059533;28;65087;-78
2023/03/15 13:45:36;;;;;;;;;0.25;0.25;;;;;;;;5057835;28;61794;-81
2023/03/15 13:48:03;;;;;;;;;1.25;0.50;;;;;;;;5055635;28;62201;-78
2023/03/15 13:50:28;;;;;;;;;1.00;1.00;;;;;;;;5054684;28;62179;-78
2023/03/15 13:52:54;;;;;;;;;1.00;1.00;;;;;;;;5072113;28;63124;-78
2023/03/15 13:55:21;;;;;;;;;1.00;1.00;;;;;;;;5053919;28;61958;-78
2023/03/15 13:57:49;;;;;;;;;2.25;1.00;;;;;;;;5054087;28;61941;-79
2023/03/15 14:00:16;;;;;;;;;2.00;0.00;;;;;;;;5053484;28;62072;-79
2023/03/15 14:02:50;;;;;;;;;4.00;1.00;;;;;;;;5060199;28;63281;-79
2023/03/15 14:05:45;;;;;;;;;1.00;1.00;;;;;;;;5062488;28;61802;-79
2023/03/15 14:08:20;;;;;;;;;1.00;1.00;;;;;;;;5048858;27;61934;-80
2023/03/15 14:10:56;;;;;;;;;3.00;0.00;;;;;;;;5060405;28;61825;-79
2023/03/15 14:13:23;;;;;;;;;1.00;1.00;;;;;;;;5070389;28;61985;-78
2023/03/15 14:15:48;;;;;;;;;2.00;0.25;;;;;;;;5047017;28;62022;-79
2023/03/15 14:18:16;;;;;;;;;0.25;0.25;;;;;;;;5079633;28;62083;-79
2023/03/15 14:20:43;;;;;;;;;1.00;0.00;;;;;;;;5078445;28;61929;-79
2023/03/15 14:23:13;;;;;;;;;0.00;0.00;;;;;;;;5077778;28;63901;-79
2023/03/15 14:25:38;;;;;;;;;1.75;0.00;;;;;;;;5079238;27;61836;-79
2023/03/15 14:28:04;;;;;;;;;0.50;0.50;;;;;;;;5080399;27;62037;-79
2023/03/15 14:30:33;;;;;;;;;0.50;0.50;;;;;;;;5079809;28;62011;-79
2023/03/15 14:33:00;;;;;;;;;1.25;1.00;;;;;;;;5079598;27;65149;-79
2023/03/15 14:35:29;;;;;;;;;0.00;0.00;;;;;;;;5084354;28;62016;-79
2023/03/15 14:38:07;;;;;;;;;0.00;0.00;;;;;;;;5084454;27;61920;-79
2023/03/15 14:40:34;;;;;;;;;2.00;1.00;;;;;;;;5084747;27;61989;-79
2023/03/15 14:43:00;;;;;;;;;0.25;0.00;;;;;;;;5083227;27;63704;-79
2023/03/15 14:45:26;;;;;;;;;1.00;1.00;;;;;;;;5084225;27;61972;-79